Time;durP1;ratioP1;P1;durP2;ratioP2;P2;SDS_P1;SDS_P2;PMS_P1;PMS_P2;Temp;Humidity;BMP_temperature;BMP_pressure;BME280_temperature;BME280_humidity;BME280_pressure;Samples;Min_cycle;Max_cycle;Signal;HPM_P1;HPM_P2
2023/05/18 00:02:00;;;;;;;0.63;0.32;;;12.80;99.90;;;;;;5094370;28;20503;-90
2023/05/18 00:04:27;;;;;;;0.17;0.15;;;12.80;99.90;;;;;;5094768;28;20021;-90
2023/05/18 00:06:55;;;;;;;1.15;0.60;;;12.80;99.90;;;;;;5094617;28;20492;-89
2023/05/18 00:09:25;;;;;;;0.10;0.10;;;12.70;99.90;;;;;;5094182;28;20078;-89
2023/05/18 00:11:52;;;;;;;0.25;0.25;;;12.60;99.90;;;;;;5094553;28;20032;-89
2023/05/18 00:14:18;;;;;;;0.20;0.20;;;12.80;99.90;;;;;;5094578;28;20032;-90
2023/05/18 00:16:44;;;;;;;0.20;0.20;;;12.80;99.90;;;;;;5093251;28;20032;-90
2023/05/18 00:19:13;;;;;;;0.10;0.10;;;12.70;99.90;;;;;;5094366;28;20161;-87
2023/05/18 00:21:40;;;;;;;0.22;0.22;;;12.90;99.90;;;;;;5094455;28;20070;-87
2023/05/18 00:24:06;;;;;;;0.10;0.10;;;12.80;99.90;;;;;;5094003;28;20391;-87
2023/05/18 00:26:32;;;;;;;0.10;0.10;;;12.80;99.90;;;;;;5126852;27;20481;-87
2023/05/18 00:28:58;;;;;;;0.00;0.00;;;12.70;99.90;;;;;;5093925;28;20016;-87
2023/05/18 00:31:23;;;;;;;0.10;0.10;;;12.70;99.90;;;;;;5126830;27;20491;-87
2023/05/18 00:33:49;;;;;;;0.00;0.00;;;12.70;99.90;;;;;;5093588;28;20036;-87
2023/05/18 00:36:15;;;;;;;0.10;0.10;;;12.70;99.90;;;;;;5093903;28;20031;-87
2023/05/18 00:38:40;;;;;;;0.10;0.10;;;12.60;99.90;;;;;;5093276;28;20032;-87
2023/05/18 00:41:06;;;;;;;0.45;0.20;;;12.70;99.90;;;;;;5092659;28;20024;-87
2023/05/18 00:43:31;;;;;;;0.00;0.00;;;12.70;99.90;;;;;;5093723;28;20059;-87
2023/05/18 00:45:57;;;;;;;0.00;0.00;;;12.70;99.90;;;;;;5093652;28;20053;-87
2023/05/18 00:48:23;;;;;;;0.13;0.13;;;12.70;99.90;;;;;;5092365;28;20360;-87
2023/05/18 00:50:48;;;;;;;0.10;0.10;;;12.80;99.90;;;;;;5092467;28;20469;-87
2023/05/18 00:53:14;;;;;;;0.40;0.15;;;12.80;99.90;;;;;;5092949;28;20036;-87
2023/05/18 00:55:40;;;;;;;0.47;0.38;;;12.70;99.90;;;;;;5093970;28;20020;-87
2023/05/18 00:58:05;;;;;;;0.10;0.10;;;12.70;99.90;;;;;;5093370;28;20028;-88
2023/05/18 01:00:32;;;;;;;0.43;0.38;;;12.70;99.90;;;;;;5093680;28;20505;-87
2023/05/18 01:02:58;;;;;;;0.20;0.10;;;12.70;99.90;;;;;;5093453;28;20028;-87
2023/05/18 01:05:24;;;;;;;0.10;0.10;;;12.60;99.90;;;;;;5093162;28;20028;-87
2023/05/18 01:07:49;;;;;;;0.05;0.05;;;12.50;99.90;;;;;;5093099;28;20028;-87
2023/05/18 01:10:17;;;;;;;0.52;0.45;;;12.50;99.90;;;;;;5091999;28;20384;-87
2023/05/18 01:12:57;;;;;;;3.60;0.30;;;12.50;99.90;;;;;;5092172;28;20484;-86
2023/05/18 01:15:34;;;;;;;0.00;0.00;;;12.50;99.90;;;;;;5091859;28;20038;-87
2023/05/18 01:18:22;;;;;;;0.20;0.20;;;12.40;99.90;;;;;;5092088;28;20119;-87
2023/05/18 01:21:09;;;;;;;0.10;0.10;;;12.40;99.90;;;;;;5092696;28;20060;-88
2023/05/18 01:23:51;;;;;;;0.20;0.20;;;12.50;99.90;;;;;;5092627;28;20564;-87
2023/05/18 01:26:23;;;;;;;0.10;0.10;;;12.40;99.90;;;;;;5092094;28;20020;-87
2023/05/18 01:28:50;;;;;;;1.70;0.52;;;12.30;99.90;;;;;;5093096;28;20032;-86
2023/05/18 01:31:16;;;;;;;0.20;0.20;;;12.30;99.90;;;;;;5092833;28;20030;-87
2023/05/18 01:33:43;;;;;;;0.30;0.30;;;12.30;99.90;;;;;;5092945;28;20115;-87
2023/05/18 01:36:09;;;;;;;0.00;0.00;;;12.30;99.90;;;;;;5091695;28;20025;-87
2023/05/18 01:38:36;;;;;;;0.10;0.10;;;12.30;99.90;;;;;;5092568;28;20044;-87
2023/05/18 01:41:20;;;;;;;0.00;0.00;;;12.20;99.90;;;;;;5091653;28;20123;-87
2023/05/18 01:44:14;;;;;;;0.00;0.00;;;12.10;99.90;;;;;;5092676;28;20031;-87
2023/05/18 01:47:14;;;;;;;0.08;0.08;;;12.10;99.90;;;;;;5092666;28;20012;-87
2023/05/18 01:49:49;;;;;;;0.10;0.10;;;12.10;99.90;;;;;;5092887;28;20035;-87
2023/05/18 01:52:30;;;;;;;0.00;0.00;;;12.10;99.90;;;;;;5092229;28;20032;-87
2023/05/18 01:55:02;;;;;;;0.10;0.10;;;12.00;99.90;;;;;;5091847;28;20503;-87
2023/05/18 01:57:30;;;;;;;0.10;0.10;;;12.00;99.90;;;;;;5091427;28;20024;-88
2023/05/18 01:59:58;;;;;;;0.17;0.17;;;11.90;99.90;;;;;;5092719;28;20024;-87
2023/05/18 02:02:25;;;;;;;0.52;0.32;;;11.90;99.90;;;;;;5092591;28;20034;-87
2023/05/18 02:04:51;;;;;;;0.15;0.15;;;11.90;99.90;;;;;;5092807;28;20107;-87
2023/05/18 02:07:16;;;;;;;0.10;0.10;;;11.80;99.90;;;;;;5092147;28;20107;-87
2023/05/18 02:09:43;;;;;;;0.10;0.10;;;11.80;99.90;;;;;;5092645;28;20020;-88
2023/05/18 02:12:09;;;;;;;0.10;0.10;;;11.90;99.90;;;;;;5092980;28;20101;-87
2023/05/18 02:14:35;;;;;;;0.10;0.10;;;11.80;99.90;;;;;;5091529;28;20064;-87
2023/05/18 02:17:00;;;;;;;0.00;0.00;;;11.80;99.90;;;;;;5092768;28;20055;-87
2023/05/18 02:19:26;;;;;;;0.20;0.20;;;11.80;99.90;;;;;;5092020;28;20032;-88
2023/05/18 02:21:52;;;;;;;0.22;0.20;;;11.80;99.90;;;;;;5092260;28;20097;-87
2023/05/18 02:24:17;;;;;;;0.00;0.00;;;11.80;99.90;;;;;;5091613;28;20032;-87
2023/05/18 02:26:43;;;;;;;0.00;0.00;;;11.80;99.90;;;;;;5091365;28;20025;-87
2023/05/18 02:29:10;;;;;;;0.00;0.00;;;11.80;99.90;;;;;;5091380;28;20035;-87
2023/05/18 02:31:39;;;;;;;0.00;0.00;;;11.80;99.90;;;;;;5091110;28;20108;-86
2023/05/18 02:34:06;;;;;;;0.20;0.20;;;11.80;99.90;;;;;;5092454;28;20016;-87
2023/05/18 02:36:38;;;;;;;0.00;0.00;;;11.80;99.90;;;;;;5092081;28;20495;-87
2023/05/18 02:39:08;;;;;;;0.10;0.10;;;11.80;99.90;;;;;;5092106;28;20088;-87
2023/05/18 02:41:35;;;;;;;0.10;0.10;;;11.80;99.90;;;;;;5091402;28;20020;-87
2023/05/18 02:44:02;;;;;;;0.00;0.00;;;11.80;99.90;;;;;;5090822;28;20037;-87
2023/05/18 02:46:28;;;;;;;0.10;0.10;;;11.60;99.90;;;;;;5091917;28;20024;-87
2023/05/18 02:48:54;;;;;;;0.45;0.30;;;11.90;99.90;;;;;;5092073;28;20097;-88
2023/05/18 02:51:20;;;;;;;0.00;0.00;;;11.90;99.90;;;;;;5091013;28;20047;-87
2023/05/18 02:53:46;;;;;;;0.00;0.00;;;11.80;99.90;;;;;;5092041;28;20499;-87
2023/05/18 02:56:12;;;;;;;0.00;0.00;;;11.70;99.90;;;;;;5090759;28;20020;-87
2023/05/18 02:58:38;;;;;;;0.00;0.00;;;11.70;99.90;;;;;;5092090;28;20028;-87
2023/05/18 03:01:06;;;;;;;0.28;0.28;;;11.60;99.90;;;;;;5093894;28;20030;-87
2023/05/18 03:03:35;;;;;;;0.17;0.13;;;11.50;99.90;;;;;;5094434;28;20096;-87
2023/05/18 03:06:01;;;;;;;0.35;0.35;;;11.60;99.90;;;;;;5095567;28;20031;-87
2023/05/18 03:08:27;;;;;;;0.10;0.10;;;11.50;99.90;;;;;;5095674;28;20025;-87
2023/05/18 03:10:53;;;;;;;0.10;0.10;;;11.60;99.90;;;;;;5095602;28;20081;-87
2023/05/18 03:13:19;;;;;;;0.10;0.10;;;11.50;99.90;;;;;;5094456;28;20032;-87
2023/05/18 03:15:45;;;;;;;0.10;0.10;;;11.60;99.90;;;;;;5095327;28;20020;-87
2023/05/18 03:18:11;;;;;;;0.00;0.00;;;11.60;99.90;;;;;;5095209;28;20395;-87
2023/05/18 03:20:37;;;;;;;0.10;0.10;;;11.50;99.90;;;;;;5093871;28;20043;-87
2023/05/18 03:23:03;;;;;;;0.10;0.10;;;11.50;99.90;;;;;;5095631;28;20024;-87
2023/05/18 03:25:31;;;;;;;0.10;0.10;;;11.60;99.90;;;;;;5095218;28;20028;-87
2023/05/18 03:27:57;;;;;;;0.03;0.03;;;11.60;99.90;;;;;;5095430;28;20024;-87
2023/05/18 03:30:23;;;;;;;0.00;0.00;;;11.60;99.90;;;;;;5094059;28;20028;-87
2023/05/18 03:32:49;;;;;;;0.17;0.17;;;11.50;99.90;;;;;;5093849;28;20028;-88
2023/05/18 03:35:15;;;;;;;0.00;0.00;;;11.60;99.90;;;;;;5095172;28;20124;-87
2023/05/18 03:37:41;;;;;;;0.00;0.00;;;11.60;99.90;;;;;;5093837;28;20119;-87
2023/05/18 03:40:10;;;;;;;0.10;0.10;;;11.50;99.90;;;;;;5093869;28;20097;-87
2023/05/18 03:42:35;;;;;;;0.08;0.08;;;11.60;99.90;;;;;;5094012;28;20031;-87
2023/05/18 03:45:01;;;;;;;0.00;0.00;;;11.60;99.90;;;;;;5095175;28;20021;-87
2023/05/18 03:47:28;;;;;;;0.00;0.00;;;11.60;99.90;;;;;;5094477;28;20035;-87
2023/05/18 03:49:54;;;;;;;0.08;0.08;;;11.60;99.90;;;;;;5094658;28;20028;-87
2023/05/18 03:52:21;;;;;;;0.45;0.25;;;11.60;99.90;;;;;;5093916;28;20381;-87
2023/05/18 03:54:48;;;;;;;0.32;0.32;;;11.70;99.90;;;;;;5094823;28;20103;-87
2023/05/18 03:57:17;;;;;;;0.10;0.10;;;11.50;99.90;;;;;;5094653;28;20080;-87
2023/05/18 03:59:44;;;;;;;0.00;0.00;;;11.50;99.90;;;;;;5094554;28;20020;-87
2023/05/18 04:02:11;;;;;;;0.00;0.00;;;11.60;99.90;;;;;;5094421;28;20024;-87
2023/05/18 04:04:40;;;;;;;0.10;0.10;;;11.60;99.90;;;;;;5093365;28;20055;-87
2023/05/18 04:07:09;;;;;;;0.10;0.10;;;11.60;99.90;;;;;;5094985;28;20032;-87
2023/05/18 04:09:35;;;;;;;0.05;0.05;;;11.60;99.90;;;;;;5094357;28;20032;-87
2023/05/18 04:12:01;;;;;;;0.10;0.10;;;11.50;99.90;;;;;;5093729;28;20047;-87
2023/05/18 04:14:27;;;;;;;0.00;0.00;;;11.30;99.90;;;;;;5094504;28;20017;-87
2023/05/18 04:16:55;;;;;;;0.20;0.20;;;11.30;99.90;;;;;;5092652;28;20123;-87
2023/05/18 04:19:21;;;;;;;0.85;0.52;;;11.30;99.90;;;;;;5094187;28;20522;-87
2023/05/18 04:21:47;;;;;;;0.70;0.35;;;11.30;99.90;;;;;;5093856;28;20119;-87
2023/05/18 04:24:15;;;;;;;0.00;0.00;;;11.10;99.90;;;;;;5094300;28;20400;-87
2023/05/18 04:26:41;;;;;;;0.17;0.17;;;11.20;99.90;;;;;;5094495;28;20488;-87
2023/05/18 04:29:09;;;;;;;0.13;0.13;;;11.10;99.90;;;;;;5094215;28;20028;-87
2023/05/18 04:31:40;;;;;;;0.10;0.10;;;10.90;99.90;;;;;;5093377;28;20063;-87
2023/05/18 04:34:07;;;;;;;0.30;0.30;;;11.00;99.90;;;;;;5093100;28;20142;-87
2023/05/18 04:36:33;;;;;;;0.10;0.10;;;11.10;99.90;;;;;;5094053;28;20496;-87
2023/05/18 04:39:02;;;;;;;0.20;0.20;;;11.00;99.90;;;;;;5093816;28;20043;-87
2023/05/18 04:41:28;;;;;;;0.20;0.20;;;11.10;99.90;;;;;;5093988;28;20032;-87
2023/05/18 04:43:53;;;;;;;0.38;0.38;;;11.20;99.90;;;;;;5094082;28;20604;-87
2023/05/18 04:46:22;;;;;;;0.73;0.35;;;11.10;99.90;;;;;;5093324;28;20028;-87
2023/05/18 04:48:48;;;;;;;0.00;0.00;;;11.20;99.90;;;;;;5092396;28;20028;-87
2023/05/18 04:51:20;;;;;;;0.10;0.10;;;11.10;99.90;;;;;;5093570;28;20031;-87
2023/05/18 04:53:48;;;;;;;0.43;0.43;;;11.10;99.90;;;;;;5093598;28;20109;-87
2023/05/18 04:56:15;;;;;;;0.00;0.00;;;11.10;99.90;;;;;;5092294;28;20024;-87
2023/05/18 04:58:44;;;;;;;0.22;0.22;;;11.10;99.90;;;;;;5092667;28;20063;-87
2023/05/18 05:01:11;;;;;;;0.10;0.10;;;10.90;99.90;;;;;;5093134;28;20028;-86
2023/05/18 05:03:37;;;;;;;0.00;0.00;;;10.90;99.90;;;;;;5092230;28;20114;-87
2023/05/18 05:06:03;;;;;;;0.10;0.10;;;10.90;99.90;;;;;;5092348;28;20509;-87
2023/05/18 05:08:28;;;;;;;0.55;0.55;;;11.00;99.90;;;;;;5092422;28;20060;-87
2023/05/18 05:10:54;;;;;;;0.28;0.22;;;11.00;99.90;;;;;;5092077;28;20024;-87
2023/05/18 05:13:19;;;;;;;0.22;0.10;;;11.00;99.90;;;;;;5093235;28;20031;-87
2023/05/18 05:15:45;;;;;;;0.25;0.25;;;10.90;99.90;;;;;;5091597;28;20051;-87
2023/05/18 05:18:11;;;;;;;0.22;0.22;;;11.00;99.90;;;;;;5093521;28;20528;-87
2023/05/18 05:20:36;;;;;;;0.13;0.13;;;11.00;99.90;;;;;;5092755;28;20043;-87
2023/05/18 05:23:02;;;;;;;0.00;0.00;;;10.90;99.90;;;;;;5091422;28;20055;-88
2023/05/18 05:25:27;;;;;;;0.08;0.08;;;11.10;99.90;;;;;;5093189;28;20027;-88
2023/05/18 05:27:53;;;;;;;0.08;0.08;;;11.20;99.90;;;;;;5091976;28;20070;-87
2023/05/18 05:30:19;;;;;;;0.20;0.20;;;11.10;99.90;;;;;;5091499;28;20474;-87
2023/05/18 05:32:44;;;;;;;0.10;0.10;;;11.10;99.90;;;;;;5093044;28;20089;-87
2023/05/18 05:35:10;;;;;;;0.63;0.63;;;11.00;99.90;;;;;;5093646;28;20103;-87
2023/05/18 05:37:35;;;;;;;1.73;0.57;;;11.20;99.90;;;;;;5093010;28;20052;-86
2023/05/18 05:40:02;;;;;;;0.10;0.10;;;11.20;99.90;;;;;;5093125;28;20020;-92
2023/05/18 05:42:28;;;;;;;0.15;0.15;;;11.20;99.90;;;;;;5092822;28;20024;-87
2023/05/18 05:44:54;;;;;;;0.35;0.35;;;11.00;99.90;;;;;;5092198;28;20103;-87
2023/05/18 05:47:20;;;;;;;0.20;0.20;;;11.10;99.90;;;;;;5091666;28;20157;-87
2023/05/18 05:49:45;;;;;;;0.10;0.10;;;11.00;99.90;;;;;;5093092;28;20027;-87
2023/05/18 05:52:11;;;;;;;0.10;0.10;;;11.20;99.90;;;;;;5091696;28;20043;-87
2023/05/18 05:54:37;;;;;;;0.10;0.10;;;11.20;99.90;;;;;;5091623;28;20400;-87
2023/05/18 05:57:02;;;;;;;0.38;0.38;;;11.10;99.90;;;;;;5091956;28;20507;-87
2023/05/18 05:59:28;;;;;;;0.20;0.20;;;11.00;99.90;;;;;;5092723;28;20032;-87
2023/05/18 06:01:54;;;;;;;0.30;0.30;;;11.00;99.90;;;;;;5091750;28;20032;-87
2023/05/18 06:04:20;;;;;;;0.13;0.13;;;11.00;99.90;;;;;;5093075;28;20488;-87
2023/05/18 06:06:46;;;;;;;0.10;0.10;;;11.20;99.90;;;;;;5092857;28;20036;-88
2023/05/18 06:09:12;;;;;;;0.55;0.45;;;11.10;99.90;;;;;;5093045;28;20020;-87
2023/05/18 06:11:38;;;;;;;1.65;0.20;;;11.40;99.90;;;;;;5091478;28;20081;-87
2023/05/18 06:14:04;;;;;;;0.77;0.77;;;11.50;99.90;;;;;;5091495;28;20028;-88
2023/05/18 06:16:30;;;;;;;0.47;0.25;;;11.30;99.90;;;;;;5091682;28;20039;-87
2023/05/18 06:18:55;;;;;;;0.30;0.30;;;11.50;99.90;;;;;;5091668;28;20471;-88
2023/05/18 06:21:21;;;;;;;0.43;0.40;;;11.50;99.90;;;;;;5092371;28;20051;-88
2023/05/18 06:23:46;;;;;;;0.10;0.10;;;11.50;99.90;;;;;;5091891;28;20025;-87
2023/05/18 06:26:12;;;;;;;0.45;0.30;;;11.70;99.90;;;;;;5091080;28;20031;-86
2023/05/18 06:28:38;;;;;;;0.30;0.30;;;11.70;99.90;;;;;;5091968;28;20024;-84
2023/05/18 06:31:04;;;;;;;0.15;0.15;;;11.90;99.90;;;;;;5094315;28;20024;-83
2023/05/18 06:33:30;;;;;;;0.10;0.10;;;12.10;99.90;;;;;;5092559;28;20093;-85
2023/05/18 06:35:56;;;;;;;0.30;0.30;;;11.90;99.90;;;;;;5095764;28;20019;-84
2023/05/18 06:38:21;;;;;;;0.05;0.05;;;11.90;99.90;;;;;;5096179;28;20447;-84
2023/05/18 06:40:47;;;;;;;0.20;0.20;;;11.80;99.90;;;;;;5095041;28;20031;-83
2023/05/18 06:43:12;;;;;;;1.90;0.65;;;11.90;99.90;;;;;;5095260;28;20038;-84
2023/05/18 06:45:38;;;;;;;0.10;0.10;;;11.90;99.90;;;;;;5095917;28;20023;-84
2023/05/18 06:48:04;;;;;;;0.63;0.63;;;11.90;99.90;;;;;;5095401;28;20028;-84
2023/05/18 06:50:30;;;;;;;0.30;0.30;;;11.90;99.90;;;;;;5095308;28;20016;-84
2023/05/18 06:52:55;;;;;;;0.20;0.20;;;11.70;99.90;;;;;;5095258;28;20059;-84
2023/05/18 06:55:21;;;;;;;0.22;0.22;;;11.70;99.90;;;;;;5094802;28;20024;-83
2023/05/18 06:57:46;;;;;;;0.50;0.50;;;11.70;99.90;;;;;;5095283;28;20028;-84
2023/05/18 07:00:12;;;;;;;0.10;0.10;;;11.80;99.90;;;;;;5095729;28;20136;-84
2023/05/18 07:02:39;;;;;;;0.00;0.00;;;11.90;99.90;;;;;;5095361;28;20024;-84
2023/05/18 07:05:07;;;;;;;0.55;0.47;;;11.90;99.90;;;;;;5095157;28;20058;-84
2023/05/18 07:07:35;;;;;;;0.20;0.20;;;12.00;99.90;;;;;;5095151;28;20031;-83
2023/05/18 07:10:01;;;;;;;0.43;0.43;;;12.10;99.90;;;;;;5094515;28;20837;-84
2023/05/18 07:12:27;;;;;;;0.25;0.13;;;12.20;99.90;;;;;;5094775;28;20119;-84
2023/05/18 07:14:53;;;;;;;0.82;0.38;;;12.20;99.90;;;;;;5095020;28;20024;-84
2023/05/18 07:17:18;;;;;;;0.10;0.10;;;12.30;99.90;;;;;;5095207;28;20476;-84
2023/05/18 07:19:44;;;;;;;0.20;0.20;;;12.40;99.90;;;;;;5094635;28;20134;-84
2023/05/18 07:22:10;;;;;;;0.25;0.25;;;12.10;99.90;;;;;;5094816;28;20039;-84
2023/05/18 07:24:35;;;;;;;0.10;0.10;;;12.00;99.90;;;;;;5094345;28;20103;-84
2023/05/18 07:27:01;;;;;;;0.10;0.10;;;12.10;99.90;;;;;;5094859;28;20024;-84
2023/05/18 07:29:28;;;;;;;1.25;1.15;;;12.10;99.90;;;;;;5094662;28;20028;-84
2023/05/18 07:31:53;;;;;;;0.38;0.38;;;12.20;99.90;;;;;;5094363;28;20556;-84
2023/05/18 07:34:19;;;;;;;0.13;0.13;;;12.10;99.90;;;;;;5094561;28;20115;-84
2023/05/18 07:36:45;;;;;;;0.30;0.30;;;12.20;99.90;;;;;;5094913;28;20024;-84
2023/05/18 07:39:17;;;;;;;0.25;0.25;;;12.10;99.90;;;;;;5094105;28;20106;-82
2023/05/18 07:41:44;;;;;;;0.10;0.10;;;12.20;99.90;;;;;;5094277;28;20543;-81
2023/05/18 07:44:09;;;;;;;0.10;0.10;;;12.10;99.90;;;;;;5094018;28;20063;-82
2023/05/18 07:46:35;;;;;;;0.47;0.47;;;12.30;99.90;;;;;;5093076;28;20453;-81
2023/05/18 07:49:01;;;;;;;0.10;0.10;;;12.40;99.90;;;;;;5094681;28;20384;-82
2023/05/18 07:51:26;;;;;;;0.00;0.00;;;12.40;99.90;;;;;;5094065;28;20118;-82
2023/05/18 07:53:52;;;;;;;0.57;0.57;;;12.50;99.90;;;;;;5093771;28;20052;-81
2023/05/18 07:56:18;;;;;;;0.10;0.10;;;12.50;99.90;;;;;;5094324;28;20067;-82
2023/05/18 07:58:43;;;;;;;0.20;0.20;;;12.50;99.90;;;;;;5093997;28;20035;-82
2023/05/18 08:01:09;;;;;;;0.15;0.15;;;12.60;99.90;;;;;;5094034;28;20110;-81
2023/05/18 08:03:34;;;;;;;1.40;0.35;;;12.60;99.90;;;;;;5093949;28;20044;-81
2023/05/18 08:06:00;;;;;;;0.32;0.32;;;12.60;99.90;;;;;;5093869;28;20028;-81
2023/05/18 08:08:26;;;;;;;0.17;0.17;;;12.50;99.90;;;;;;5093440;28;20469;-82
2023/05/18 08:10:52;;;;;;;0.17;0.17;;;12.60;99.90;;;;;;5093788;28;20080;-81
2023/05/18 08:13:18;;;;;;;0.00;0.00;;;12.60;99.90;;;;;;5093818;28;20043;-81
2023/05/18 08:15:43;;;;;;;1.35;0.63;;;12.80;99.90;;;;;;5093674;28;20587;-81
2023/05/18 08:18:09;;;;;;;5.68;0.60;;;12.80;99.90;;;;;;5093649;28;20034;-82
2023/05/18 08:20:34;;;;;;;0.10;0.10;;;12.80;99.90;;;;;;5093801;28;20488;-82
2023/05/18 08:23:00;;;;;;;0.10;0.10;;;12.90;99.90;;;;;;5092859;28;20020;-81
2023/05/18 08:25:26;;;;;;;0.00;0.00;;;13.40;99.90;;;;;;5093679;28;20047;-81
2023/05/18 08:27:52;;;;;;;0.68;0.55;;;13.30;99.90;;;;;;5093406;28;20028;-81
2023/05/18 08:30:20;;;;;;;0.38;0.38;;;13.40;99.90;;;;;;5093489;28;20032;-82
2023/05/18 08:32:46;;;;;;;0.10;0.10;;;13.70;99.90;;;;;;5093612;28;20051;-82
2023/05/18 08:35:12;;;;;;;0.10;0.10;;;13.60;99.90;;;;;;5093360;28;20016;-82
2023/05/18 08:37:38;;;;;;;0.20;0.20;;;13.60;99.90;;;;;;5092776;28;20365;-81
2023/05/18 08:40:06;;;;;;;0.63;0.63;;;13.80;99.90;;;;;;5093126;28;20481;-82
2023/05/18 08:42:38;;;;;;;1.75;0.70;;;13.80;99.90;;;;;;5093067;27;20020;-82
2023/05/18 08:45:14;;;;;;;0.10;0.10;;;14.10;99.90;;;;;;5093580;28;20055;-82
2023/05/18 08:47:40;;;;;;;0.20;0.20;;;14.20;99.90;;;;;;5092914;28;20020;-82
2023/05/18 08:50:12;;;;;;;0.20;0.20;;;14.30;99.90;;;;;;5093104;28;20502;-81
2023/05/18 08:52:47;;;;;;;0.10;0.10;;;14.60;99.90;;;;;;5092627;28;20496;-82
2023/05/18 08:55:16;;;;;;;0.32;0.32;;;14.60;99.90;;;;;;5093071;28;20023;-82
2023/05/18 08:57:43;;;;;;;0.57;0.57;;;14.60;99.90;;;;;;5092791;28;20488;-82
2023/05/18 09:00:11;;;;;;;0.52;0.52;;;14.90;99.90;;;;;;5092766;28;20028;-82
2023/05/18 09:02:37;;;;;;;0.00;0.00;;;14.70;99.90;;;;;;5092738;28;20039;-82
2023/05/18 09:05:03;;;;;;;0.20;0.20;;;14.60;99.90;;;;;;5093111;28;20020;-82
2023/05/18 09:07:30;;;;;;;0.10;0.10;;;14.90;99.90;;;;;;5092400;28;20028;-82
2023/05/18 09:09:57;;;;;;;0.30;0.30;;;14.90;99.90;;;;;;5092600;28;20054;-82
2023/05/18 09:12:23;;;;;;;0.10;0.10;;;14.90;99.90;;;;;;5092581;28;20119;-81
2023/05/18 09:14:49;;;;;;;0.57;0.50;;;15.10;99.90;;;;;;5093054;28;20024;-82
2023/05/18 09:17:15;;;;;;;0.47;0.47;;;15.10;99.90;;;;;;5092416;28;20064;-81
2023/05/18 09:19:41;;;;;;;0.20;0.20;;;15.50;99.90;;;;;;5092393;28;20105;-82
2023/05/18 09:22:06;;;;;;;0.43;0.43;;;15.50;99.90;;;;;;5092061;28;20408;-82
2023/05/18 09:24:33;;;;;;;0.28;0.28;;;15.40;99.90;;;;;;5092438;28;20028;-81
2023/05/18 09:26:59;;;;;;;0.70;0.47;;;15.50;99.90;;;;;;5092466;28;20032;-81
2023/05/18 09:29:24;;;;;;;0.50;0.50;;;15.60;99.90;;;;;;5092404;28;20051;-82
2023/05/18 09:31:52;;;;;;;0.10;0.10;;;15.70;99.90;;;;;;5092583;28;20064;-82
2023/05/18 09:34:18;;;;;;;0.65;0.52;;;15.90;99.90;;;;;;5092300;28;20024;-82
2023/05/18 09:36:48;;;;;;;0.22;0.22;;;15.80;99.90;;;;;;5091763;28;20032;-82
2023/05/18 09:39:13;;;;;;;0.85;0.50;;;16.10;99.90;;;;;;5092173;28;20042;-82
2023/05/18 09:41:40;;;;;;;0.63;0.63;;;16.30;99.90;;;;;;5092705;28;20064;-82
2023/05/18 09:44:11;;;;;;;0.57;0.30;;;16.30;99.90;;;;;;5092057;28;20067;-82
2023/05/18 09:46:38;;;;;;;0.08;0.08;;;16.40;99.90;;;;;;5092047;28;20032;-81
2023/05/18 09:49:06;;;;;;;0.50;0.50;;;16.10;99.90;;;;;;5092100;28;20031;-82
2023/05/18 09:51:36;;;;;;;0.52;0.22;;;15.90;99.90;;;;;;5092025;28;20425;-81
2023/05/18 09:54:05;;;;;;;0.35;0.30;;;16.00;99.90;;;;;;5091943;28;20388;-82
2023/05/18 09:56:34;;;;;;;1.13;0.82;;;15.70;99.90;;;;;;5092103;28;20024;-81
2023/05/18 09:59:11;;;;;;;1.10;0.60;;;15.90;99.90;;;;;;5092104;28;20031;-82
2023/05/18 10:01:54;;;;;;;0.28;0.28;;;16.00;99.90;;;;;;5092127;28;20027;-82
2023/05/18 10:04:20;;;;;;;0.25;0.25;;;16.30;99.90;;;;;;5091644;28;20400;-81
2023/05/18 10:06:49;;;;;;;0.82;0.50;;;16.70;99.90;;;;;;5092050;28;20028;-82
2023/05/18 10:09:15;;;;;;;0.93;0.40;;;17.00;99.90;;;;;;5094518;28;20389;-82
2023/05/18 10:11:42;;;;;;;0.13;0.13;;;17.10;99.90;;;;;;5096037;28;20111;-82
2023/05/18 10:14:10;;;;;;;0.47;0.32;;;16.80;99.90;;;;;;5096138;28;20055;-82
2023/05/18 10:16:36;;;;;;;1.90;0.55;;;17.00;99.90;;;;;;5096019;28;20016;-82
2023/05/18 10:19:05;;;;;;;0.10;0.10;;;17.10;99.90;;;;;;5096348;28;20359;-81
2023/05/18 10:21:33;;;;;;;0.43;0.43;;;17.40;99.90;;;;;;5095758;28;20476;-82
2023/05/18 10:24:02;;;;;;;0.20;0.20;;;17.40;99.90;;;;;;5095994;28;20571;-82
2023/05/18 10:26:29;;;;;;;0.32;0.30;;;17.10;99.90;;;;;;5096188;28;20020;-82
2023/05/18 10:28:57;;;;;;;0.25;0.25;;;17.20;99.90;;;;;;5095831;28;20027;-81
2023/05/18 10:31:24;;;;;;;0.10;0.10;;;17.20;99.90;;;;;;5095552;28;20048;-82
2023/05/18 10:33:52;;;;;;;0.30;0.25;;;17.60;99.90;;;;;;5095150;28;20024;-82
2023/05/18 10:36:18;;;;;;;0.40;0.40;;;17.90;99.90;;;;;;5094727;28;20115;-81
2023/05/18 10:38:45;;;;;;;0.30;0.30;;;17.90;99.90;;;;;;5095574;28;20028;-82
2023/05/18 10:41:12;;;;;;;0.30;0.30;;;17.50;99.90;;;;;;5095512;28;20391;-82
2023/05/18 10:43:40;;;;;;;0.13;0.13;;;17.70;99.90;;;;;;5095625;28;20117;-82
2023/05/18 10:46:07;;;;;;;0.20;0.17;;;17.70;99.90;;;;;;5095670;28;20148;-81
2023/05/18 10:48:37;;;;;;;0.20;0.20;;;17.30;99.90;;;;;;5094876;28;20568;-82
2023/05/18 10:51:05;;;;;;;0.20;0.20;;;17.20;99.90;;;;;;5095558;28;20046;-82
2023/05/18 10:53:32;;;;;;;0.40;0.40;;;17.10;99.90;;;;;;5095097;28;20036;-82
2023/05/18 10:55:58;;;;;;;0.50;0.45;;;17.40;99.90;;;;;;5095604;28;20031;-81
2023/05/18 10:58:28;;;;;;;3.80;0.30;;;17.50;99.90;;;;;;5095365;28;20032;-82
2023/05/18 11:00:57;;;;;;;0.70;0.70;;;17.80;99.90;;;;;;5095063;28;20024;-82
2023/05/18 11:03:25;;;;;;;0.20;0.20;;;17.50;99.90;;;;;;5094582;28;20024;-82
2023/05/18 11:06:09;;;;;;;0.22;0.20;;;17.30;99.90;;;;;;5095449;28;20020;-82
2023/05/18 11:08:43;;;;;;;0.40;0.40;;;17.30;99.90;;;;;;5095015;28;20036;-82
2023/05/18 11:11:08;;;;;;;0.30;0.30;;;17.60;99.90;;;;;;5094815;28;20379;-82
2023/05/18 11:13:35;;;;;;;1.15;0.28;;;18.00;99.90;;;;;;5094889;28;20034;-82
2023/05/18 11:16:03;;;;;;;0.80;0.40;;;18.30;99.90;;;;;;5094828;28;20024;-82
2023/05/18 11:18:38;;;;;;;0.60;0.45;;;18.20;99.90;;;;;;5094248;28;20032;-82
2023/05/18 11:21:22;;;;;;;1.45;0.65;;;18.00;99.90;;;;;;5093658;28;20044;-82
2023/05/18 11:24:13;;;;;;;0.20;0.20;;;18.20;99.90;;;;;;5094653;28;20476;-81
2023/05/18 11:26:45;;;;;;;0.30;0.30;;;18.40;99.90;;;;;;5094556;28;20024;-81
2023/05/18 11:29:29;;;;;;;0.43;0.43;;;18.00;99.90;;;;;;5094518;28;20073;-84
2023/05/18 11:31:54;;;;;;;0.25;0.25;;;18.30;99.90;;;;;;5094143;28;20040;-85
2023/05/18 11:34:38;;;;;;;3.75;1.27;;;18.70;99.90;;;;;;5094647;28;20111;-84
2023/05/18 11:37:05;;;;;;;0.32;0.32;;;18.40;99.90;;;;;;5094506;28;20032;-81
2023/05/18 11:39:31;;;;;;;1.00;0.63;;;18.70;99.90;;;;;;5094498;28;20021;-82
2023/05/18 11:42:04;;;;;;;0.20;0.20;;;18.80;99.90;;;;;;5094250;28;20020;-82
2023/05/18 11:44:31;;;;;;;0.10;0.10;;;18.80;99.90;;;;;;5094469;28;20056;-81
2023/05/18 11:47:09;;;;;;;0.20;0.20;;;19.10;99.90;;;;;;5093738;28;20464;-82
2023/05/18 11:49:44;;;;;;;0.20;0.20;;;19.80;99.90;;;;;;5094235;28;20020;-82
2023/05/18 11:52:20;;;;;;;0.60;0.50;;;19.80;99.90;;;;;;5092854;28;20058;-82
2023/05/18 11:54:52;;;;;;;0.47;0.40;;;19.60;99.90;;;;;;5094393;28;20032;-82
2023/05/18 11:57:33;;;;;;;0.82;0.32;;;19.70;99.90;;;;;;5094086;28;20364;-82
2023/05/18 12:00:00;;;;;;;0.57;0.20;;;19.40;99.90;;;;;;5093572;28;20032;-82
2023/05/18 12:02:29;;;;;;;0.40;0.40;;;19.50;99.90;;;;;;5093960;28;20103;-82
2023/05/18 12:05:01;;;;;;;0.30;0.30;;;19.20;99.90;;;;;;5093970;28;20036;-82
2023/05/18 12:07:34;;;;;;;0.20;0.20;;;19.60;99.90;;;;;;5094262;28;20024;-82
2023/05/18 12:10:02;;;;;;;0.73;0.50;;;19.60;99.90;;;;;;5093915;28;20040;-82
2023/05/18 12:12:28;;;;;;;0.17;0.17;;;19.90;99.90;;;;;;5093687;28;20028;-81
2023/05/18 12:14:58;;;;;;;0.30;0.30;;;19.80;99.90;;;;;;5093436;28;20058;-82
2023/05/18 12:17:42;;;;;;;0.68;0.68;;;19.70;99.90;;;;;;5093714;28;20384;-82
2023/05/18 12:20:15;;;;;;;0.40;0.40;;;19.30;99.90;;;;;;5093863;28;20140;-82
2023/05/18 12:22:43;;;;;;;0.57;0.35;;;19.30;99.90;;;;;;5093550;28;20043;-82
2023/05/18 12:25:10;;;;;;;0.17;0.17;;;19.40;99.90;;;;;;5093553;28;20024;-82
2023/05/18 12:27:40;;;;;;;0.20;0.20;;;19.40;99.90;;;;;;5093489;28;20020;-82
2023/05/18 12:30:11;;;;;;;0.20;0.20;;;19.30;99.90;;;;;;5093124;28;20391;-82
2023/05/18 12:32:36;;;;;;;0.50;0.50;;;19.30;99.90;;;;;;5093003;28;20063;-82
2023/05/18 12:35:04;;;;;;;0.45;0.40;;;19.10;99.90;;;;;;5093972;28;20441;-81
2023/05/18 12:37:30;;;;;;;0.20;0.20;;;19.10;99.90;;;;;;5093296;28;20024;-82
2023/05/18 12:39:55;;;;;;;0.10;0.10;;;19.00;99.90;;;;;;5093293;28;20031;-81
2023/05/18 12:42:21;;;;;;;1.27;0.65;;;19.10;99.90;;;;;;5093147;28;20572;-82
2023/05/18 12:44:48;;;;;;;0.40;0.40;;;19.10;99.90;;;;;;5092669;28;20028;-82
2023/05/18 12:47:15;;;;;;;0.10;0.10;;;19.10;99.90;;;;;;5093153;28;20020;-82
2023/05/18 12:49:46;;;;;;;1.13;0.28;;;19.10;99.90;;;;;;5093325;28;20024;-82
2023/05/18 12:52:15;;;;;;;0.10;0.10;;;19.10;99.90;;;;;;5093022;28;20036;-81